This is the latest recevied weather packets stored in our database for station/object EA3CH. If no packets are shown the sender has not sent any weather packets the latest 10 day(s).
| Time | Temp. | Humidity | Pressure | Rain* | Wind** | Luminosity | Snow |
|---|---|---|---|---|---|---|---|
| 1787875212 | 21.67° C | 52% | 1015.7 hPa | 0 mm | - | 0 W/m² | - |
| 1787875203 | 21.11° C | 62% | 1015.9 hPa | 0 mm | - | 0 W/m² | - |
| 1787874304 | 21.67° C | 62% | 1016.1 hPa | 0 mm | - | 0 W/m² | - |
| 1787873404 | 21.67° C | 60% | 1016.4 hPa | 0 mm | - | 0 W/m² | - |
| 1787872504 | 22.22° C | 51% | 1016.3 hPa | 0 mm | - | 0 W/m² | - |
| 1787872503 | 21.67° C | 61% | 1016.5 hPa | 0 mm | - | 0 W/m² | - |
| 1787871604 | 21.67° C | 63% | 1016.5 hPa | 0 mm | - | 0 W/m² | - |
| 1787870704 | 21.67° C | 66% | 1016.8 hPa | 0 mm | - | 0 W/m² | - |
| 1787869805 | 22.22° C | 56% | 1015.6 hPa | 0 mm | - | 0 W/m² | - |
| 1787869804 | 22.22° C | 65% | 1015.9 hPa | 0 mm | - | 0 W/m² | - |
| 1787868905 | 22.78° C | 53% | 1015.6 hPa | 0 mm | - | 0 W/m² | - |
| 1787868904 | 22.78° C | 62% | 1015.8 hPa | 0 mm | - | 0 W/m² | - |
| 1787868006 | 23.33° C | 51% | 1015.6 hPa | 0 mm | - | 0 W/m² | - |
| 1787868005 | 22.78° C | 60% | 1015.8 hPa | 0 mm | - | 0 W/m² | - |
| 1787867104 | 22.78° C | 58% | 1015.7 hPa | 0 mm | - | 0 W/m² | - |
| 1787866206 | 23.89° C | 47% | 1015.3 hPa | 0 mm | - | 0 W/m² | - |
| 1787866204 | 23.33° C | 56% | 1015.5 hPa | 0 mm | - | 0 W/m² | - |
| 1787865311 | 23.89° C | 46% | 1015.5 hPa | 0 mm | - | 0 W/m² | - |
| 1787865311 | 23.33° C | 56% | 1015.8 hPa | 0 mm | - | 0 W/m² | - |
| 1787864404 | 23.33° C | 56% | 1015.7 hPa | 0 mm | - | 0 W/m² | - |
| 1787863503 | 23.33° C | 60% | 1015.6 hPa | 0 mm | - | 0 W/m² | - |
| 1787862604 | 23.33° C | 62% | 1015.3 hPa | 0 mm | - | 0 W/m² | - |
| 1787861704 | 23.33° C | 65% | 1015.3 hPa | 0 mm | - | 0 W/m² | - |
| 1787860805 | 23.89° C | 56% | 1015.2 hPa | 0 mm | - | 0 W/m² | - |
| 1787860804 | 23.89° C | 66% | 1015.4 hPa | 0 mm | - | 0 W/m² | - |
* Rain latest hour (hover to see other rain measurements)
** Current wind speed in m/s (hover to see current wind gust speed)